Time;durP1;ratioP1;P1;durP2;ratioP2;P2;SDS_P1;SDS_P2;PMS_P1;PMS_P2;Temp;Humidity;BMP_temperature;BMP_pressure;BME280_temperature;BME280_humidity;BME280_pressure;Samples;Min_cycle;Max_cycle;Signal;HPM_P1;HPM_P2
2023/03/28 00:00:35;;;;;;;5.22;1.60;;;;;;;;;;5064223;28;20452;-62
2023/03/28 00:04:16;;;;;;;6.40;1.77;;;;;;;;;;5055940;28;20044;-65
2023/03/28 00:07:56;;;;;;;5.30;1.65;;;;;;;;;;5061604;28;20140;-64
2023/03/28 00:11:42;;;;;;;5.25;1.40;;;;;;;;;;5061417;28;20488;-62
2023/03/28 00:15:22;;;;;;;7.90;1.58;;;;;;;;;;5064077;28;20136;-63
2023/03/28 00:19:04;;;;;;;5.47;1.70;;;;;;;;;;5060295;28;20115;-62
2023/03/28 00:22:44;;;;;;;7.15;2.15;;;;;;;;;;5059101;28;20504;-65
2023/03/28 00:26:25;;;;;;;5.03;1.63;;;;;;;;;;5061780;28;20049;-71
2023/03/28 00:30:06;;;;;;;5.43;1.60;;;;;;;;;;5062640;28;20355;-64
2023/03/28 00:33:48;;;;;;;7.32;1.70;;;;;;;;;;5059399;28;20548;-62
2023/03/28 00:37:26;;;;;;;6.15;1.80;;;;;;;;;;5064168;28;20121;-63
2023/03/28 00:41:08;;;;;;;6.18;1.85;;;;;;;;;;5057622;28;20449;-64
2023/03/28 00:44:40;;;;;;;6.70;1.80;;;;;;;;;;5060140;28;20048;-64
2023/03/28 00:47:48;;;;;;;5.57;1.50;;;;;;;;;;5054621;28;20045;-65
2023/03/28 00:50:26;;;;;;;10.55;1.60;;;;;;;;;;5062680;28;20102;-63
2023/03/28 00:53:05;;;;;;;6.93;1.73;;;;;;;;;;5075695;28;20051;-64
2023/03/28 00:55:40;;;;;;;6.35;1.80;;;;;;;;;;5056529;28;20076;-62
2023/03/28 00:58:10;;;;;;;6.47;1.77;;;;;;;;;;5056453;28;20904;-63
2023/03/28 01:00:40;;;;;;;4.68;1.80;;;;;;;;;;5059130;28;20110;-64
2023/03/28 01:03:07;;;;;;;5.88;1.73;;;;;;;;;;5058145;28;20052;-63
2023/03/28 01:05:35;;;;;;;3.65;1.50;;;;;;;;;;5061504;28;20048;-64
2023/03/28 01:08:14;;;;;;;6.07;2.28;;;;;;;;;;5060353;28;20048;-64
2023/03/28 01:10:40;;;;;;;7.78;1.73;;;;;;;;;;5061069;28;20083;-62
2023/03/28 01:13:07;;;;;;;4.05;1.60;;;;;;;;;;5065700;28;20056;-62
2023/03/28 01:15:32;;;;;;;4.20;1.60;;;;;;;;;;5067366;28;20060;-63
2023/03/28 01:18:40;;;;;;;6.57;1.48;;;;;;;;;;5059405;28;20048;-63
2023/03/28 01:22:24;;;;;;;5.47;1.75;;;;;;;;;;5064074;28;20044;-62
2023/03/28 01:25:25;;;;;;;7.45;1.50;;;;;;;;;;5053950;28;20139;-65
2023/03/28 01:28:47;;;;;;;4.65;1.50;;;;;;;;;;5068593;28;20102;-62
2023/03/28 01:31:51;;;;;;;5.22;1.35;;;;;;;;;;5063784;28;20053;-65
2023/03/28 01:35:10;;;;;;;6.35;1.17;;;;;;;;;;5065420;28;20109;-63
2023/03/28 01:38:32;;;;;;;5.35;1.33;;;;;;;;;;5061817;28;20049;-62
2023/03/28 01:42:19;;;;;;;4.47;1.60;;;;;;;;;;5062607;28;20431;-63
2023/03/28 01:46:01;;;;;;;3.33;1.40;;;;;;;;;;4997110;28;20030;-64
2023/03/28 01:49:51;;;;;;;3.47;1.48;;;;;;;;;;4997437;28;20050;-63
2023/03/28 01:53:16;;;;;;;4.63;1.30;;;;;;;;;;5002651;28;20311;-64
2023/03/28 01:57:02;;;;;;;4.68;1.30;;;;;;;;;;4992719;28;21316;-62
2023/03/28 02:00:58;;;;;;;4.57;1.30;;;;;;;;;;5002407;28;20651;-64
2023/03/28 02:04:38;;;;;;;7.47;1.65;;;;;;;;;;4992589;28;20053;-62
2023/03/28 02:08:19;;;;;;;6.85;1.45;;;;;;;;;;4998074;28;20054;-62
2023/03/28 02:11:59;;;;;;;3.40;1.30;;;;;;;;;;5000364;28;20399;-63
2023/03/28 02:15:40;;;;;;;2.80;1.13;;;;;;;;;;4989497;28;20038;-63
2023/03/28 02:19:21;;;;;;;3.42;1.35;;;;;;;;;;4990399;28;20457;-62
2023/03/28 02:23:15;;;;;;;4.43;1.30;;;;;;;;;;5065530;28;20874;-62
2023/03/28 02:26:55;;;;;;;4.53;1.80;;;;;;;;;;5052584;28;20579;-63
2023/03/28 02:30:36;;;;;;;4.65;1.20;;;;;;;;;;5062492;28;20135;-63
2023/03/28 02:34:01;;;;;;;4.70;1.23;;;;;;;;;;5064933;28;20125;-63
2023/03/28 02:37:14;;;;;;;4.40;1.48;;;;;;;;;;5069364;28;20048;-64
2023/03/28 02:40:26;;;;;;;3.10;1.30;;;;;;;;;;5061426;28;20848;-62
2023/03/28 02:43:47;;;;;;;4.93;1.58;;;;;;;;;;5064154;28;20048;-62
2023/03/28 02:47:31;;;;;;;3.10;1.35;;;;;;;;;;5057222;28;20052;-65
2023/03/28 02:50:55;;;;;;;3.10;1.35;;;;;;;;;;5065135;28;20048;-63
2023/03/28 02:54:31;;;;;;;7.07;1.50;;;;;;;;;;5065747;28;20056;-63
2023/03/28 02:58:15;;;;;;;3.92;1.50;;;;;;;;;;5062963;28;20515;-63
2023/03/28 03:01:55;;;;;;;5.57;1.52;;;;;;;;;;5060558;28;20063;-63
2023/03/28 03:05:36;;;;;;;4.90;1.60;;;;;;;;;;5062410;28;20044;-63
2023/03/28 03:09:17;;;;;;;5.70;1.40;;;;;;;;;;5066012;28;20060;-63
2023/03/28 03:12:57;;;;;;;3.33;1.20;;;;;;;;;;5069024;28;20488;-64
2023/03/28 03:16:38;;;;;;;4.75;1.10;;;;;;;;;;5066873;28;20115;-63
2023/03/28 03:20:18;;;;;;;2.38;1.20;;;;;;;;;;5060318;28;20416;-62
2023/03/28 03:23:58;;;;;;;4.88;1.30;;;;;;;;;;5060526;28;20073;-64
2023/03/28 03:27:39;;;;;;;4.55;1.52;;;;;;;;;;5058390;28;20048;-61
2023/03/28 03:31:22;;;;;;;6.65;1.40;;;;;;;;;;5061833;28;20433;-63
2023/03/28 03:35:01;;;;;;;5.00;1.50;;;;;;;;;;5059347;28;20048;-63
2023/03/28 03:38:41;;;;;;;5.57;1.30;;;;;;;;;;5063300;28;20496;-63
2023/03/28 03:42:21;;;;;;;6.53;1.10;;;;;;;;;;5060102;28;20089;-64
2023/03/28 03:46:04;;;;;;;5.53;1.48;;;;;;;;;;5062898;28;20488;-66
2023/03/28 03:49:45;;;;;;;4.97;1.45;;;;;;;;;;5060444;28;20052;-64
2023/03/28 03:53:25;;;;;;;3.92;1.40;;;;;;;;;;5060678;28;20055;-63
2023/03/28 03:57:05;;;;;;;5.55;1.80;;;;;;;;;;5060113;28;20492;-63
2023/03/28 04:00:47;;;;;;;2.70;1.30;;;;;;;;;;5058476;28;20045;-63
2023/03/28 04:04:28;;;;;;;3.80;1.52;;;;;;;;;;5060201;28;20060;-66
2023/03/28 04:08:08;;;;;;;5.47;1.42;;;;;;;;;;5063004;28;20429;-62
2023/03/28 04:11:49;;;;;;;4.53;1.45;;;;;;;;;;5060386;28;20118;-65
2023/03/28 04:15:29;;;;;;;5.65;1.33;;;;;;;;;;5058134;28;20197;-63
2023/03/28 04:19:12;;;;;;;4.82;1.50;;;;;;;;;;5061151;28;20036;-64
2023/03/28 04:22:50;;;;;;;4.90;1.50;;;;;;;;;;5064038;28;20044;-65
2023/03/28 04:26:34;;;;;;;4.55;1.20;;;;;;;;;;5061841;28;20125;-68
2023/03/28 04:30:11;;;;;;;3.45;1.38;;;;;;;;;;5061144;28;20044;-66
2023/03/28 04:33:52;;;;;;;5.25;1.63;;;;;;;;;;5060044;28;20052;-65
2023/03/28 04:37:32;;;;;;;9.45;1.67;;;;;;;;;;5060028;28;20078;-64
2023/03/28 04:41:12;;;;;;;5.32;1.45;;;;;;;;;;5062659;28;20506;-63
2023/03/28 04:44:52;;;;;;;13.05;1.75;;;;;;;;;;5060049;28;20079;-64
2023/03/28 04:48:34;;;;;;;5.07;1.50;;;;;;;;;;5059271;28;20119;-66
2023/03/28 04:52:14;;;;;;;6.75;1.63;;;;;;;;;;5061002;28;20076;-69
2023/03/28 04:55:55;;;;;;;9.65;1.88;;;;;;;;;;5063368;28;20601;-66
2023/03/28 04:59:35;;;;;;;7.45;1.90;;;;;;;;;;5060254;28;20430;-62
2023/03/28 05:03:19;;;;;;;7.95;1.63;;;;;;;;;;5065221;28;20900;-65
2023/03/28 05:06:56;;;;;;;3.55;1.50;;;;;;;;;;5060361;28;20114;-64
2023/03/28 05:10:36;;;;;;;5.68;1.60;;;;;;;;;;5065124;28;20508;-64
2023/03/28 05:14:16;;;;;;;4.82;1.67;;;;;;;;;;5065810;28;20044;-62
2023/03/28 05:17:57;;;;;;;8.68;2.30;;;;;;;;;;5071533;28;20619;-64
2023/03/28 05:21:37;;;;;;;8.73;2.35;;;;;;;;;;5066195;28;20127;-66
2023/03/28 05:25:17;;;;;;;4.68;2.00;;;;;;;;;;5064891;28;20046;-64
2023/03/28 05:28:57;;;;;;;5.60;2.05;;;;;;;;;;5069993;28;20052;-65
2023/03/28 05:32:38;;;;;;;4.82;1.83;;;;;;;;;;5058574;28;20473;-64
2023/03/28 05:36:19;;;;;;;7.97;2.17;;;;;;;;;;5068315;28;21901;-65
2023/03/28 05:39:59;;;;;;;7.70;2.00;;;;;;;;;;5064558;28;20043;-65
2023/03/28 05:43:39;;;;;;;7.20;1.98;;;;;;;;;;5070024;28;20051;-67
2023/03/28 05:47:19;;;;;;;10.25;2.08;;;;;;;;;;5068528;28;20503;-70
2023/03/28 05:51:00;;;;;;;3.92;1.70;;;;;;;;;;5067766;28;20059;-65
2023/03/28 05:54:40;;;;;;;9.93;2.22;;;;;;;;;;5066198;28;20140;-66
2023/03/28 05:58:20;;;;;;;6.35;1.80;;;;;;;;;;5062934;28;20127;-64
2023/03/28 06:01:26;;;;;;;9.20;2.20;;;;;;;;;;5070618;28;20037;-62
2023/03/28 06:03:52;;;;;;;7.07;2.45;;;;;;;;;;5040563;28;20032;-64
2023/03/28 06:06:19;;;;;;;7.90;2.03;;;;;;;;;;5065640;28;20059;-64
2023/03/28 06:08:45;;;;;;;7.85;2.72;;;;;;;;;;5063272;28;20095;-64
2023/03/28 06:11:11;;;;;;;14.98;2.50;;;;;;;;;;5061311;28;20397;-66
2023/03/28 06:13:38;;;;;;;6.57;2.20;;;;;;;;;;5075191;28;20052;-63
2023/03/28 06:16:04;;;;;;;10.43;4.32;;;;;;;;;;5062854;28;20048;-63
2023/03/28 06:18:30;;;;;;;9.82;2.88;;;;;;;;;;5066709;28;20075;-63
2023/03/28 06:20:56;;;;;;;7.57;2.40;;;;;;;;;;5069671;28;20110;-63
2023/03/28 06:23:22;;;;;;;7.68;2.50;;;;;;;;;;5064825;28;20486;-62
2023/03/28 06:25:48;;;;;;;5.50;2.15;;;;;;;;;;5059558;28;20511;-64
2023/03/28 06:28:16;;;;;;;7.65;2.53;;;;;;;;;;5056740;28;20049;-64
2023/03/28 06:30:47;;;;;;;15.18;2.30;;;;;;;;;;5062736;28;20039;-64
2023/03/28 06:33:13;;;;;;;9.15;2.47;;;;;;;;;;5062495;28;21337;-63
2023/03/28 06:35:39;;;;;;;8.90;2.25;;;;;;;;;;5062020;28;20048;-62
2023/03/28 06:38:05;;;;;;;8.30;2.40;;;;;;;;;;5067587;28;20060;-62
2023/03/28 06:40:31;;;;;;;11.52;2.58;;;;;;;;;;5062352;28;20122;-65
2023/03/28 06:42:57;;;;;;;6.28;2.30;;;;;;;;;;5066335;28;20143;-63
2023/03/28 06:46:02;;;;;;;6.63;2.28;;;;;;;;;;5066725;28;20040;-64
2023/03/28 06:49:43;;;;;;;7.95;2.70;;;;;;;;;;5064488;28;20112;-62
2023/03/28 06:53:23;;;;;;;9.20;2.50;;;;;;;;;;5063894;28;20127;-69
2023/03/28 06:57:03;;;;;;;6.35;2.22;;;;;;;;;;5062960;28;20426;-62
2023/03/28 07:00:44;;;;;;;13.05;2.20;;;;;;;;;;5059894;28;20051;-64
2023/03/28 07:04:24;;;;;;;15.73;2.72;;;;;;;;;;5060496;28;20058;-65
2023/03/28 07:08:05;;;;;;;9.05;2.97;;;;;;;;;;5058641;28;20636;-66
2023/03/28 07:11:45;;;;;;;15.10;3.40;;;;;;;;;;5065466;28;20097;-65
2023/03/28 07:15:25;;;;;;;8.68;2.40;;;;;;;;;;5065075;28;20385;-62
2023/03/28 07:19:06;;;;;;;11.05;2.70;;;;;;;;;;5057716;28;20075;-64
2023/03/28 07:22:47;;;;;;;12.32;2.80;;;;;;;;;;5063644;28;20469;-61
2023/03/28 07:26:27;;;;;;;12.40;3.28;;;;;;;;;;5066155;28;20128;-63
2023/03/28 07:30:08;;;;;;;14.30;2.80;;;;;;;;;;5052400;28;20060;-64
2023/03/28 07:33:49;;;;;;;25.33;4.40;;;;;;;;;;5063404;28;20124;-65
2023/03/28 07:37:29;;;;;;;36.38;10.23;;;;;;;;;;5066537;28;20070;-63
2023/03/28 07:41:10;;;;;;;20.77;4.15;;;;;;;;;;5060623;28;20045;-64
2023/03/28 07:44:50;;;;;;;24.15;4.78;;;;;;;;;;5058090;28;20076;-63
2023/03/28 07:48:30;;;;;;;11.48;3.13;;;;;;;;;;5058820;28;20411;-64
2023/03/28 07:52:10;;;;;;;12.38;3.38;;;;;;;;;;5061061;28;20261;-63
2023/03/28 07:55:50;;;;;;;11.38;3.45;;;;;;;;;;5057847;28;20044;-64
2023/03/28 07:59:31;;;;;;;12.38;3.53;;;;;;;;;;5069744;28;20051;-64
2023/03/28 08:03:11;;;;;;;7.63;2.97;;;;;;;;;;5067052;28;20072;-64
2023/03/28 08:06:51;;;;;;;14.57;3.25;;;;;;;;;;5062808;28;20526;-64
2023/03/28 08:10:32;;;;;;;17.98;2.88;;;;;;;;;;5069046;28;20161;-65
2023/03/28 08:13:54;;;;;;;9.80;3.20;;;;;;;;;;5061561;28;20533;-67
2023/03/28 08:17:35;;;;;;;10.88;3.63;;;;;;;;;;5061494;28;20051;-65
2023/03/28 08:21:15;;;;;;;8.43;3.40;;;;;;;;;;5054697;28;20051;-66
2023/03/28 08:24:55;;;;;;;10.77;4.00;;;;;;;;;;5053460;28;20047;-61
2023/03/28 08:28:50;;;;;;;20.88;6.10;;;;;;;;;;5064954;28;20143;-63
2023/03/28 08:32:30;;;;;;;9.50;4.72;;;;;;;;;;5063888;28;20174;-64
2023/03/28 08:36:13;;;;;;;15.57;5.40;;;;;;;;;;5074484;28;20225;-65
2023/03/28 08:39:50;;;;;;;17.02;7.30;;;;;;;;;;5066952;28;20096;-67
2023/03/28 08:42:53;;;;;;;18.67;6.22;;;;;;;;;;5064119;28;20051;-63
2023/03/28 08:46:33;;;;;;;12.43;6.28;;;;;;;;;;5062867;28;20475;-64
2023/03/28 08:50:20;;;;;;;19.30;6.88;;;;;;;;;;5062360;28;20270;-65
2023/03/28 08:54:03;;;;;;;23.88;8.48;;;;;;;;;;5071670;28;20448;-64
2023/03/28 08:57:45;;;;;;;17.25;7.50;;;;;;;;;;5065909;28;20488;-64
2023/03/28 09:01:26;;;;;;;16.27;6.90;;;;;;;;;;5059512;28;20053;-63
2023/03/28 09:05:05;;;;;;;18.33;5.88;;;;;;;;;;5062343;28;20045;-63
2023/03/28 09:08:18;;;;;;;14.50;5.07;;;;;;;;;;5066956;28;20080;-65
2023/03/28 09:11:44;;;;;;;17.45;4.88;;;;;;;;;;5065214;28;20082;-66
2023/03/28 09:15:24;;;;;;;15.07;5.50;;;;;;;;;;5063623;28;20114;-63
2023/03/28 09:18:53;;;;;;;10.25;5.65;;;;;;;;;;5062546;28;20108;-63
2023/03/28 09:22:19;;;;;;;12.17;5.30;;;;;;;;;;5055063;28;20456;-63
2023/03/28 09:25:59;;;;;;;12.75;5.57;;;;;;;;;;5065833;28;20052;-64
2023/03/28 09:29:52;;;;;;;14.02;5.72;;;;;;;;;;5068271;28;20048;-64
2023/03/28 09:33:32;;;;;;;15.38;5.25;;;;;;;;;;5058753;28;20507;-63
2023/03/28 09:37:15;;;;;;;21.77;5.53;;;;;;;;;;5060578;28;20044;-64
2023/03/28 09:41:01;;;;;;;16.05;5.22;;;;;;;;;;5061984;28;20044;-63
2023/03/28 09:44:42;;;;;;;13.38;5.05;;;;;;;;;;5066405;28;20036;-63
2023/03/28 09:48:25;;;;;;;17.38;4.97;;;;;;;;;;5062657;28;20040;-64
2023/03/28 09:52:05;;;;;;;14.25;4.90;;;;;;;;;;5064345;28;20090;-63
2023/03/28 09:55:46;;;;;;;20.13;5.50;;;;;;;;;;5063321;28;20102;-65
2023/03/28 09:59:25;;;;;;;15.88;5.70;;;;;;;;;;5066613;28;20049;-65
2023/03/28 10:03:06;;;;;;;15.57;5.97;;;;;;;;;;5059270;28;20128;-63
2023/03/28 10:06:53;;;;;;;14.25;6.07;;;;;;;;;;5056960;28;20098;-64
2023/03/28 10:10:35;;;;;;;17.27;5.65;;;;;;;;;;5066117;28;20052;-64
2023/03/28 10:14:15;;;;;;;17.30;6.22;;;;;;;;;;5060261;28;20057;-62
2023/03/28 10:18:08;;;;;;;18.48;6.28;;;;;;;;;;5065699;28;20078;-65
2023/03/28 10:21:48;;;;;;;22.13;6.60;;;;;;;;;;5065806;28;20041;-64
2023/03/28 10:25:28;;;;;;;24.83;8.80;;;;;;;;;;5063171;28;20178;-64
2023/03/28 10:29:13;;;;;;;23.58;9.20;;;;;;;;;;5060239;28;20056;-64
2023/03/28 10:32:53;;;;;;;22.38;9.45;;;;;;;;;;5060328;28;20128;-66
2023/03/28 10:36:36;;;;;;;29.75;9.45;;;;;;;;;;5050863;28;20067;-64
2023/03/28 10:40:26;;;;;;;18.73;9.52;;;;;;;;;;5061143;28;20048;-64
2023/03/28 10:44:09;;;;;;;16.13;9.43;;;;;;;;;;5060781;28;20206;-65
2023/03/28 10:47:50;;;;;;;21.30;8.95;;;;;;;;;;5063806;28;20052;-63
2023/03/28 10:51:33;;;;;;;20.27;8.93;;;;;;;;;;5061747;28;20223;-65
2023/03/28 10:55:25;;;;;;;29.38;8.52;;;;;;;;;;5060346;28;20048;-63
2023/03/28 10:58:59;;;;;;;18.80;7.70;;;;;;;;;;5064671;28;20174;-65
2023/03/28 11:02:06;;;;;;;22.50;7.67;;;;;;;;;;5059363;28;20101;-63
2023/03/28 11:05:10;;;;;;;16.75;7.57;;;;;;;;;;5061035;28;20055;-66
2023/03/28 11:08:46;;;;;;;15.32;7.68;;;;;;;;;;5062689;28;20099;-64
2023/03/28 11:12:32;;;;;;;21.48;7.28;;;;;;;;;;5051029;28;20049;-62
2023/03/28 11:15:59;;;;;;;18.00;6.68;;;;;;;;;;5062463;28;20056;-65
2023/03/28 11:19:31;;;;;;;19.23;6.68;;;;;;;;;;5071063;28;20049;-63
2023/03/28 11:23:00;;;;;;;14.93;6.50;;;;;;;;;;5025826;28;20052;-65
2023/03/28 11:26:59;;;;;;;17.17;6.03;;;;;;;;;;5029698;28;20049;-66
2023/03/28 11:30:02;;;;;;;15.13;5.05;;;;;;;;;;5022524;28;20564;-63
2023/03/28 11:33:29;;;;;;;11.80;5.45;;;;;;;;;;5022870;28;20084;-67
2023/03/28 11:37:46;;;;;;;19.23;6.35;;;;;;;;;;5021475;28;20053;-64
2023/03/28 11:41:41;;;;;;;14.13;6.15;;;;;;;;;;4947880;28;21104;-64
2023/03/28 11:45:31;;;;;;;14.65;5.05;;;;;;;;;;4941126;28;20055;-64
2023/03/28 11:49:15;;;;;;;14.77;5.95;;;;;;;;;;4951164;28;20553;-65
2023/03/28 11:52:34;;;;;;;12.88;5.57;;;;;;;;;;4950639;28;20046;-64
2023/03/28 11:56:17;;;;;;;20.88;7.65;;;;;;;;;;4946191;28;20053;-65
2023/03/28 12:00:14;;;;;;;15.88;6.07;;;;;;;;;;4988513;28;20057;-67
2023/03/28 12:03:41;;;;;;;15.98;4.90;;;;;;;;;;4996165;28;20169;-64
2023/03/28 12:07:02;;;;;;;12.87;4.57;;;;;;;;;;5002124;28;20209;-65
2023/03/28 12:10:46;;;;;;;15.20;4.75;;;;;;;;;;5017845;28;20048;-63
2023/03/28 12:14:28;;;;;;;13.13;3.55;;;;;;;;;;5060524;28;20380;-66
2023/03/28 12:18:09;;;;;;;11.10;4.13;;;;;;;;;;5065584;28;20069;-66
2023/03/28 12:21:31;;;;;;;14.73;3.88;;;;;;;;;;5060159;28;20049;-66
2023/03/28 12:25:11;;;;;;;11.63;4.05;;;;;;;;;;5067749;28;20562;-63
2023/03/28 12:28:19;;;;;;;11.68;3.28;;;;;;;;;;5062655;28;20232;-63
2023/03/28 12:31:30;;;;;;;8.27;2.70;;;;;;;;;;5059363;28;20474;-66
2023/03/28 12:35:13;;;;;;;7.43;2.80;;;;;;;;;;5063923;28;20064;-65
2023/03/28 12:38:30;;;;;;;12.60;2.45;;;;;;;;;;5056438;28;20051;-64
2023/03/28 12:41:49;;;;;;;;;;;;;;;;;;5066148;28;20052;-67
2023/03/28 12:45:30;;;;;;;9.15;2.10;;;;;;;;;;5058975;28;20019;-65
2023/03/28 12:49:16;;;;;;;13.57;2.53;;;;;;;;;;5071044;28;20090;-66
2023/03/28 12:52:59;;;;;;;10.18;2.10;;;;;;;;;;5058993;28;20036;-66
2023/03/28 12:56:40;;;;;;;14.43;2.35;;;;;;;;;;5055784;28;20052;-66
2023/03/28 13:00:15;;;;;;;14.20;2.55;;;;;;;;;;5057831;28;20044;-65
2023/03/28 13:03:53;;;;;;;9.73;2.63;;;;;;;;;;5040947;28;20049;-66
2023/03/28 13:07:17;;;;;;;14.45;2.58;;;;;;;;;;5065031;28;20048;-66
2023/03/28 13:11:00;;;;;;;10.60;2.30;;;;;;;;;;5003313;28;20348;-65
2023/03/28 13:14:23;;;;;;;13.43;2.58;;;;;;;;;;5003246;28;20071;-67
2023/03/28 13:18:06;;;;;;;10.80;2.78;;;;;;;;;;5003465;28;20489;-66
2023/03/28 13:21:59;;;;;;;13.00;2.95;;;;;;;;;;5002450;28;20060;-66
2023/03/28 13:25:38;;;;;;;11.43;2.47;;;;;;;;;;5003112;28;20056;-65
2023/03/28 13:29:01;;;;;;;13.00;2.47;;;;;;;;;;5003152;28;20130;-65
2023/03/28 13:32:41;;;;;;;9.90;2.60;;;;;;;;;;4997152;28;20407;-66
2023/03/28 13:36:09;;;;;;;9.45;2.53;;;;;;;;;;5000918;28;20045;-66
2023/03/28 13:39:26;;;;;;;11.73;2.97;;;;;;;;;;5000338;28;20045;-66
2023/03/28 13:41:55;;;;;;;13.48;2.38;;;;;;;;;;5003039;28;20095;-65
2023/03/28 13:44:27;;;;;;;13.52;2.33;;;;;;;;;;5004418;28;20053;-65
2023/03/28 13:46:53;;;;;;;11.10;2.20;;;;;;;;;;5039151;28;20049;-64
2023/03/28 13:49:28;;;;;;;12.80;2.78;;;;;;;;;;5066169;28;20040;-67
2023/03/28 13:52:23;;;;;;;11.30;2.42;;;;;;;;;;5064732;28;20073;-67
2023/03/28 13:54:55;;;;;;;9.70;1.80;;;;;;;;;;5065859;28;20053;-65
2023/03/28 13:57:25;;;;;;;14.27;2.47;;;;;;;;;;5063719;28;20388;-65
2023/03/28 13:59:54;;;;;;;8.40;2.25;;;;;;;;;;5068771;28;20105;-63
2023/03/28 14:02:30;;;;;;;13.88;2.88;;;;;;;;;;5068468;28;20040;-64
2023/03/28 14:05:10;;;;;;;13.85;2.30;;;;;;;;;;5069614;28;20052;-63
2023/03/28 14:07:40;;;;;;;11.77;2.35;;;;;;;;;;5063798;28;20056;-64
2023/03/28 14:10:43;;;;;;;14.38;2.40;;;;;;;;;;5072904;28;20044;-72
2023/03/28 14:13:16;;;;;;;14.15;2.38;;;;;;;;;;4985959;28;20042;-63
2023/03/28 14:15:43;;;;;;;9.13;2.30;;;;;;;;;;4983692;28;20141;-66
2023/03/28 14:18:32;;;;;;;14.55;2.72;;;;;;;;;;4999405;28;20045;-66
2023/03/28 14:20:59;;;;;;;13.25;3.00;;;;;;;;;;4993307;28;20062;-64
2023/03/28 14:23:28;;;;;;;14.80;2.58;;;;;;;;;;4995708;28;20046;-65
2023/03/28 14:25:57;;;;;;;11.27;2.35;;;;;;;;;;5000370;28;20049;-64
2023/03/28 14:28:27;;;;;;;16.65;2.55;;;;;;;;;;4998350;28;20244;-64
2023/03/28 14:30:55;;;;;;;12.57;3.08;;;;;;;;;;5002212;28;20143;-65
2023/03/28 14:33:23;;;;;;;10.32;2.45;;;;;;;;;;4990166;28;20051;-65
2023/03/28 14:36:01;;;;;;;10.55;2.75;;;;;;;;;;4982834;28;20415;-63
2023/03/28 14:38:38;;;;;;;16.58;3.08;;;;;;;;;;4996250;28;20054;-64
2023/03/28 14:41:10;;;;;;;15.10;2.70;;;;;;;;;;4997330;28;20178;-64
2023/03/28 14:43:36;;;;;;;16.02;2.70;;;;;;;;;;5000238;28;20049;-64
2023/03/28 14:46:06;;;;;;;16.92;3.22;;;;;;;;;;5005003;28;20128;-64
2023/03/28 14:48:34;;;;;;;16.98;3.00;;;;;;;;;;5064873;28;20045;-65
2023/03/28 14:51:02;;;;;;;10.77;2.80;;;;;;;;;;5060098;28;20197;-66
2023/03/28 14:53:35;;;;;;;10.18;2.30;;;;;;;;;;5060285;28;20040;-67
2023/03/28 14:56:15;;;;;;;18.00;3.10;;;;;;;;;;5066470;28;20044;-66
2023/03/28 14:58:46;;;;;;;11.27;2.72;;;;;;;;;;5057458;28;20924;-66
2023/03/28 15:01:21;;;;;;;15.18;2.30;;;;;;;;;;5056611;28;20067;-68
2023/03/28 15:04:00;;;;;;;15.40;2.75;;;;;;;;;;5064104;28;20048;-67
2023/03/28 15:06:30;;;;;;;16.65;2.80;;;;;;;;;;5059564;28;20502;-66
2023/03/28 15:08:59;;;;;;;13.93;2.63;;;;;;;;;;5059238;28;20568;-69
2023/03/28 15:11:34;;;;;;;12.10;2.80;;;;;;;;;;5060871;28;20052;-66
2023/03/28 15:14:05;;;;;;;13.80;2.95;;;;;;;;;;5060066;28;21436;-65
2023/03/28 15:16:55;;;;;;;10.30;2.60;;;;;;;;;;5063026;28;20052;-62
2023/03/28 15:20:35;;;;;;;15.98;3.42;;;;;;;;;;5059398;28;20127;-63
2023/03/28 15:24:18;;;;;;;14.85;2.40;;;;;;;;;;5061501;28;20048;-66
2023/03/28 15:27:03;;;;;;;13.40;3.15;;;;;;;;;;5059197;28;20720;-65
2023/03/28 15:29:35;;;;;;;9.10;2.75;;;;;;;;;;5053730;28;20052;-64
2023/03/28 15:32:15;;;;;;;14.85;3.13;;;;;;;;;;5055025;28;20086;-64
2023/03/28 15:35:05;;;;;;;12.13;2.67;;;;;;;;;;5066451;28;20495;-65
2023/03/28 15:37:43;;;;;;;11.10;2.65;;;;;;;;;;5061272;28;20052;-63
2023/03/28 15:40:22;;;;;;;15.43;3.55;;;;;;;;;;5063203;28;20056;-63
2023/03/28 15:42:50;;;;;;;13.18;3.03;;;;;;;;;;5065285;28;20048;-65
2023/03/28 15:45:19;;;;;;;15.85;2.65;;;;;;;;;;5054593;28;20056;-66
2023/03/28 15:47:47;;;;;;;18.60;4.47;;;;;;;;;;5068767;28;20487;-66
2023/03/28 15:50:35;;;;;;;14.88;3.53;;;;;;;;;;5062592;28;20048;-66
2023/03/28 15:53:11;;;;;;;14.68;3.63;;;;;;;;;;5064779;28;20059;-66
2023/03/28 15:55:39;;;;;;;15.27;4.15;;;;;;;;;;5054839;28;20053;-65
2023/03/28 15:58:09;;;;;;;12.77;3.22;;;;;;;;;;5064729;28;20048;-61
2023/03/28 16:00:37;;;;;;;19.17;3.45;;;;;;;;;;5058754;28;20061;-66
2023/03/28 16:03:19;;;;;;;15.85;3.03;;;;;;;;;;5064468;28;20609;-65
2023/03/28 16:05:54;;;;;;;13.05;2.80;;;;;;;;;;5064946;28;20083;-66
2023/03/28 16:08:20;;;;;;;18.38;4.57;;;;;;;;;;5061402;28;20067;-65
2023/03/28 16:10:47;;;;;;;19.50;3.35;;;;;;;;;;5064318;28;20045;-65
2023/03/28 16:13:13;;;;;;;18.90;3.80;;;;;;;;;;5063447;28;20036;-62
2023/03/28 16:15:41;;;;;;;20.55;3.53;;;;;;;;;;5055064;28;20055;-65
2023/03/28 16:18:07;;;;;;;22.27;3.72;;;;;;;;;;5056225;28;20056;-65
2023/03/28 16:20:33;;;;;;;17.80;3.15;;;;;;;;;;5055323;28;20052;-63
2023/03/28 16:23:00;;;;;;;18.35;3.42;;;;;;;;;;5060148;28;20041;-62
2023/03/28 16:25:27;;;;;;;13.30;2.85;;;;;;;;;;5058146;28;20657;-63
2023/03/28 16:27:54;;;;;;;14.93;3.53;;;;;;;;;;5064293;28;20033;-63
2023/03/28 16:30:29;;;;;;;13.10;3.20;;;;;;;;;;5055926;28;20056;-65
2023/03/28 16:32:55;;;;;;;14.70;3.10;;;;;;;;;;5059453;28;20383;-64
2023/03/28 16:35:21;;;;;;;15.27;3.22;;;;;;;;;;5060052;28;20055;-64
2023/03/28 16:37:47;;;;;;;13.77;3.17;;;;;;;;;;5059859;28;20694;-64
2023/03/28 16:40:14;;;;;;;16.85;3.30;;;;;;;;;;5059108;28;20094;-62
2023/03/28 16:42:40;;;;;;;19.13;3.65;;;;;;;;;;5063509;28;20056;-63
2023/03/28 16:45:10;;;;;;;16.13;3.35;;;;;;;;;;5061080;28;20058;-65
2023/03/28 16:47:37;;;;;;;17.90;3.38;;;;;;;;;;5062977;28;20114;-65
2023/03/28 16:50:08;;;;;;;17.38;3.22;;;;;;;;;;5063476;28;20048;-64
2023/03/28 16:52:37;;;;;;;16.67;3.63;;;;;;;;;;5065194;28;20121;-63
2023/03/28 16:55:09;;;;;;;17.20;3.33;;;;;;;;;;5065276;28;20040;-62
2023/03/28 16:57:35;;;;;;;17.08;3.97;;;;;;;;;;5060904;28;20045;-65
2023/03/28 17:00:03;;;;;;;17.13;3.38;;;;;;;;;;5063120;28;20392;-65
2023/03/28 17:02:30;;;;;;;17.40;3.30;;;;;;;;;;5060661;28;20053;-67
2023/03/28 17:04:56;;;;;;;11.57;2.90;;;;;;;;;;5059610;28;20056;-63
2023/03/28 17:07:24;;;;;;;18.27;3.17;;;;;;;;;;5060502;28;20052;-65
2023/03/28 17:09:50;;;;;;;15.05;3.22;;;;;;;;;;5062625;28;20117;-66
2023/03/28 17:12:17;;;;;;;19.02;3.25;;;;;;;;;;5061575;28;20041;-63
2023/03/28 17:14:44;;;;;;;24.42;3.65;;;;;;;;;;5070136;28;20361;-65
2023/03/28 17:17:11;;;;;;;17.30;2.97;;;;;;;;;;5062869;28;20052;-63
2023/03/28 17:19:37;;;;;;;20.02;3.22;;;;;;;;;;5065717;28;20472;-65
2023/03/28 17:22:03;;;;;;;21.65;4.43;;;;;;;;;;5060499;28;20393;-65
2023/03/28 17:24:29;;;;;;;18.75;3.58;;;;;;;;;;5062428;28;20117;-66
2023/03/28 17:26:55;;;;;;;21.85;3.53;;;;;;;;;;5065771;28;20439;-64
2023/03/28 17:29:22;;;;;;;22.33;3.75;;;;;;;;;;5063813;28;20044;-63
2023/03/28 17:31:48;;;;;;;19.15;4.03;;;;;;;;;;5069128;28;20044;-65
2023/03/28 17:34:14;;;;;;;23.45;3.65;;;;;;;;;;5069242;28;20052;-64
2023/03/28 17:36:41;;;;;;;19.05;3.05;;;;;;;;;;5068730;28;20040;-64
2023/03/28 17:39:09;;;;;;;25.00;4.68;;;;;;;;;;5065864;28;20218;-65
2023/03/28 17:41:36;;;;;;;19.08;3.55;;;;;;;;;;5066325;28;20363;-65
2023/03/28 17:44:05;;;;;;;20.73;3.30;;;;;;;;;;5067096;28;20041;-65
2023/03/28 17:46:32;;;;;;;25.98;3.60;;;;;;;;;;5064222;28;22407;-64
2023/03/28 17:48:57;;;;;;;24.65;3.83;;;;;;;;;;5065652;28;20200;-63
2023/03/28 17:51:25;;;;;;;19.27;3.70;;;;;;;;;;5061211;28;20113;-61
2023/03/28 17:53:51;;;;;;;21.17;3.90;;;;;;;;;;5076772;28;20060;-65
2023/03/28 17:56:17;;;;;;;29.45;3.72;;;;;;;;;;5064920;28;20102;-65
2023/03/28 17:58:43;;;;;;;19.27;3.42;;;;;;;;;;5060600;28;20045;-64
2023/03/28 18:01:18;;;;;;;17.63;3.42;;;;;;;;;;5061752;28;20052;-65
2023/03/28 18:03:45;;;;;;;18.13;4.30;;;;;;;;;;5057051;28;20119;-64
2023/03/28 18:06:12;;;;;;;24.85;3.60;;;;;;;;;;5064663;28;20493;-68
2023/03/28 18:08:38;;;;;;;28.33;4.05;;;;;;;;;;5060733;28;20060;-66
2023/03/28 18:11:10;;;;;;;20.33;3.20;;;;;;;;;;5061967;28;20446;-65
2023/03/28 18:13:37;;;;;;;28.23;4.05;;;;;;;;;;5066173;28;20082;-65
2023/03/28 18:16:09;;;;;;;21.90;3.88;;;;;;;;;;5057375;28;20049;-65
2023/03/28 18:18:36;;;;;;;22.52;3.15;;;;;;;;;;5061005;28;20055;-66
2023/03/28 18:21:41;;;;;;;18.08;2.95;;;;;;;;;;5064667;28;20544;-68
2023/03/28 18:25:22;;;;;;;24.02;4.32;;;;;;;;;;5062407;28;20055;-65
2023/03/28 18:29:04;;;;;;;25.92;4.85;;;;;;;;;;5064044;28;20404;-67
2023/03/28 18:32:45;;;;;;;23.85;4.28;;;;;;;;;;5065894;28;20147;-67
2023/03/28 18:36:24;;;;;;;21.83;3.47;;;;;;;;;;5061749;28;20040;-68
2023/03/28 18:39:25;;;;;;;15.60;2.88;;;;;;;;;;5064111;28;20071;-64
2023/03/28 18:41:51;;;;;;;20.95;4.70;;;;;;;;;;5063160;28;20048;-66
2023/03/28 18:44:17;;;;;;;26.08;4.00;;;;;;;;;;5057385;28;20110;-66
2023/03/28 18:46:53;;;;;;;20.80;3.72;;;;;;;;;;5053288;28;20053;-68
2023/03/28 18:49:59;;;;;;;26.73;4.25;;;;;;;;;;5059518;28;20499;-66
2023/03/28 18:52:59;;;;;;;18.98;3.35;;;;;;;;;;5056186;28;20075;-67